CheckWX is a tool to help pilots better visualize weather data.  It is not intended as a substitute for an official pre-flight weather briefing.

13:45:08 UTC

KAIO METAR
Atlantic Municipal Airport
Atlantic, Iowa, USA
Current

30 mins ago

KAIO 201315Z AUTO 02012G18KT 10SM 06/03 A3013 RMK AO2
Observed
May-20 @ 13:15 UTC
Wind
  • 020° at 12 KTS
  • Gusting to 18 KTS
Visibility
10 SM
Temperature
C / 43°F
Dewpoint
C / 37°F
Humidity
81%
Altimeter
30.13" Hg
Pressure
1020.32 hPa
Previous

50 mins ago

KAIO 201255Z AUTO 02012KT 10SM BKN015 06/04 A3012 RMK AO2
Observed
May-20 @ 12:55 UTC
Wind
  • 020° at 12 KTS
Visibility
10 SM
Flight Rules
MVFR
Cloud Levels
  • Broken at 1,500' AGL
Temperature
C / 43°F
Dewpoint
C / 39°F
Humidity
87%
Altimeter
30.12" Hg
Pressure
1020.02 hPa
Previous

1 hour ago

KAIO 201235Z AUTO 03015KT 10SM 05/04 A3011 RMK AO2
Observed
May-20 @ 12:35 UTC
Wind
  • 030° at 15 KTS
Visibility
10 SM
Temperature
C / 41°F
Dewpoint
C / 39°F
Humidity
93%
Altimeter
30.11" Hg
Pressure
1019.62 hPa